KDRO/DRO METAR and TAF weather

Enter ICAO airport designator
Station Type Date Time Source
KDRO METAR 2018/10/21 03:53 UTC NOAA

KDRO 210353Z AUTO 03003KT 10SM CLR 07/00 A3040 RMK AO2 SLP270 T00670000


Station Type Date Time Source
KDRO Decoded METAR 2018/10/21 03:53 UTC NOAA

DURANGO-LA PLATA COUNTY AIRPORT , CO, United States (KDRO) 37-09N 107-46W 2035M
Oct 20, 2018 - 11:53 PM EDT / 2018.10.21 0353 UTC
Wind: from the NNE (030 degrees) at 3 MPH (3 KT):0
Visibility: 10 mile(s):0
Sky conditions: clear
Temperature: 44.1 F (6.7 C)
Dew Point: 32.0 F (0.0 C)
Relative Humidity: 62%
Pressure (altimeter): 30.4 in. Hg (1029 hPa)
ob: KDRO 210353Z AUTO 03003KT 10SM CLR 07/00 A3040 RMK AO2 SLP270 T00670000
cycle: 4

Station Type Date Time Source
KDRO TAF 2018/10/20 18:22 UTC NOAA

TAF KDRO 201720Z 2018/2118 VRB05KT P6SM SKC
FM210500 04003KT P6SM SKC


Example: see airport list